Terminal Aerodrome Forecast
Issued by NWS

Home | Current Version | Previous Version | Text Only | Print | Product List | Glossary On
Versions: 1 2 3 4 5 6 7 8 9 10 11 12 13 14 15 16 17 18
702
FTUS41 KBGM 251129
TAFITH
TAF
KITH 251129Z 2512/2612 16013KT P6SM SCT025 OVC040
     FM251500 17016G25KT P6SM OVC035
     FM251700 18014G26KT 5SM SHRA BR OVC025
      TEMPO 2518/2520 2SM +TSRA BR OVC015CB
     FM252200 30011G20KT P6SM -RASN OVC035
     FM260000 29014G26KT P6SM BKN050
     FM260700 28015G32KT P6SM OVC040=

USA.gov is the U.S. government's official web portal to all federal, state and local government web resources and services.